Time;durP1;ratioP1;P1;durP2;ratioP2;P2;SDS_P1;SDS_P2;PMS_P1;PMS_P2;Temp;Humidity;BMP_temperature;BMP_pressure;BME280_temperature;BME280_humidity;BME280_pressure;Samples;Min_cycle;Max_cycle;Signal;HPM_P1;HPM_P2
2022/06/23 00:01:42;;;;;;;4.75;2.20;;;21.50;90.00;;;;;;5057235;28;20033;-71
2022/06/23 00:04:16;;;;;;;2.05;1.67;;;21.50;90.50;;;;;;5054861;28;20473;-70
2022/06/23 00:06:47;;;;;;;4.35;1.70;;;21.40;91.50;;;;;;5055571;28;20021;-71
2022/06/23 00:09:34;;;;;;;3.00;1.90;;;21.40;90.70;;;;;;5055690;28;20025;-71
2022/06/23 00:12:02;;;;;;;7.20;2.20;;;21.30;90.70;;;;;;5053379;28;20451;-70
2022/06/23 00:14:28;;;;;;;3.80;1.75;;;21.20;90.60;;;;;;5054182;28;20116;-71
2022/06/23 00:16:53;;;;;;;2.75;1.85;;;21.30;90.70;;;;;;5047093;28;20108;-70
2022/06/23 00:19:19;;;;;;;2.75;1.90;;;21.30;91.00;;;;;;5035578;28;20052;-70
2022/06/23 00:21:50;;;;;;;2.20;2.08;;;21.20;91.60;;;;;;5035763;28;20030;-70
2022/06/23 00:24:25;;;;;;;4.68;1.88;;;21.20;91.10;;;;;;5036470;28;20025;-71
2022/06/23 00:26:52;;;;;;;2.88;2.20;;;21.20;91.00;;;;;;5047865;28;20018;-71
2022/06/23 00:29:22;;;;;;;3.72;1.90;;;21.10;90.80;;;;;;5035500;28;20024;-70
2022/06/23 00:32:02;;;;;;;3.33;2.65;;;21.10;90.70;;;;;;5039246;28;20374;-70
2022/06/23 00:34:43;;;;;;;3.10;2.33;;;21.10;90.60;;;;;;5041818;28;20483;-71
2022/06/23 00:37:16;;;;;;;8.20;2.28;;;21.10;90.60;;;;;;5043819;28;20018;-70
2022/06/23 00:39:54;;;;;;;3.00;1.98;;;21.10;90.90;;;;;;5055648;28;20029;-70
2022/06/23 00:42:28;;;;;;;3.10;2.20;;;21.10;91.60;;;;;;5053557;28;20040;-70
2022/06/23 00:45:06;;;;;;;5.78;2.45;;;21.00;91.00;;;;;;5055175;28;20036;-70
2022/06/23 00:47:38;;;;;;;6.57;2.55;;;21.00;91.10;;;;;;5053865;28;20077;-71
2022/06/23 00:50:32;;;;;;;4.10;2.93;;;20.90;91.70;;;;;;5055223;28;20072;-73
2022/06/23 00:53:16;;;;;;;4.18;2.13;;;20.90;90.70;;;;;;5056139;28;20041;-70
2022/06/23 00:56:03;;;;;;;5.40;3.10;;;20.90;90.80;;;;;;5054424;28;20025;-70
2022/06/23 00:58:47;;;;;;;3.00;2.70;;;21.00;90.90;;;;;;5050387;28;20039;-70
2022/06/23 01:01:15;;;;;;;3.47;2.30;;;20.90;91.30;;;;;;5063274;28;20499;-71
2022/06/23 01:03:54;;;;;;;5.10;3.05;;;20.90;91.50;;;;;;5055324;28;20040;-73
2022/06/23 01:06:41;;;;;;;6.60;3.00;;;20.80;91.20;;;;;;5053766;28;20017;-70
2022/06/23 01:09:15;;;;;;;3.80;2.85;;;20.80;91.10;;;;;;5054943;28;20052;-70
2022/06/23 01:12:21;;;;;;;3.67;2.70;;;20.80;91.30;;;;;;5054049;28;20092;-70
2022/06/23 01:14:53;;;;;;;4.13;2.35;;;20.80;91.30;;;;;;5053352;28;20514;-71
2022/06/23 01:17:33;;;;;;;5.43;3.28;;;20.80;91.50;;;;;;5054260;28;20369;-73
2022/06/23 01:20:01;;;;;;;4.78;2.42;;;20.70;91.90;;;;;;5054099;28;20111;-72
2022/06/23 01:22:56;;;;;;;2.90;2.60;;;20.80;91.30;;;;;;5054757;28;20059;-72
2022/06/23 01:25:49;;;;;;;4.93;2.55;;;20.80;91.80;;;;;;5054041;28;20013;-70
2022/06/23 01:28:16;;;;;;;;;;;20.70;91.60;;;;;;5053843;28;20381;-70
2022/06/23 01:30:57;;;;;;;5.03;2.80;;;20.70;92.50;;;;;;5054586;28;20422;-72
2022/06/23 01:33:40;;;;;;;4.65;2.80;;;20.80;92.00;;;;;;5053295;28;20380;-72
2022/06/23 01:36:15;;;;;;;4.53;2.50;;;20.80;92.60;;;;;;5036080;28;20025;-72
2022/06/23 01:38:59;;;;;;;4.43;2.70;;;20.80;92.00;;;;;;5054596;28;20024;-72
2022/06/23 01:41:39;;;;;;;4.68;2.60;;;20.80;92.20;;;;;;5052705;28;20021;-71
2022/06/23 01:44:24;;;;;;;2.90;2.47;;;20.70;93.30;;;;;;5054228;28;20042;-72
2022/06/23 01:46:52;;;;;;;4.72;2.60;;;20.70;93.60;;;;;;5053950;28;20025;-72
2022/06/23 01:49:22;;;;;;;4.35;2.47;;;20.70;92.40;;;;;;5052657;28;20037;-71
2022/06/23 01:51:54;;;;;;;4.40;2.83;;;20.70;92.60;;;;;;5054060;28;20024;-71
2022/06/23 01:54:19;;;;;;;3.15;2.50;;;20.80;93.30;;;;;;5053432;28;20032;-71
2022/06/23 01:56:45;;;;;;;4.18;2.28;;;20.70;93.70;;;;;;5035051;28;20025;-71
2022/06/23 01:59:23;;;;;;;3.25;2.60;;;20.70;93.00;;;;;;5035281;28;20060;-71
2022/06/23 02:02:09;;;;;;;3.58;2.78;;;20.70;92.50;;;;;;5033740;28;20038;-71
2022/06/23 02:04:42;;;;;;;3.45;2.20;;;20.70;93.20;;;;;;5032398;28;20056;-71
2022/06/23 02:07:15;;;;;;;2.75;2.53;;;20.70;93.20;;;;;;5034007;28;20028;-71
2022/06/23 02:09:51;;;;;;;2.97;2.55;;;20.70;93.60;;;;;;5032564;28;20026;-71
2022/06/23 02:12:24;;;;;;;3.75;2.72;;;20.80;93.10;;;;;;5048030;28;20036;-71
2022/06/23 02:15:05;;;;;;;3.63;3.00;;;20.80;93.50;;;;;;5053644;28;20032;-71
2022/06/23 02:17:45;;;;;;;3.58;2.35;;;20.70;92.50;;;;;;5053488;28;20033;-71
2022/06/23 02:20:33;;;;;;;5.82;3.38;;;20.70;93.10;;;;;;5053700;28;20430;-71
2022/06/23 02:23:21;;;;;;;6.63;3.03;;;20.80;92.50;;;;;;5051824;28;20036;-72
2022/06/23 02:26:32;;;;;;;4.18;2.83;;;20.70;92.90;;;;;;5052849;28;20017;-72
2022/06/23 02:29:06;;;;;;;5.25;2.65;;;20.70;93.90;;;;;;5072252;28;20031;-71
2022/06/23 02:32:01;;;;;;;5.53;3.42;;;20.70;93.60;;;;;;5052371;28;20112;-72
2022/06/23 02:34:34;;;;;;;3.20;2.90;;;20.70;93.50;;;;;;5051318;28;20551;-71
2022/06/23 02:37:43;;;;;;;5.05;3.00;;;20.60;94.10;;;;;;5052358;28;20036;-71
2022/06/23 02:40:21;;;;;;;5.15;2.90;;;20.50;94.00;;;;;;5053248;28;20028;-72
2022/06/23 02:42:56;;;;;;;5.03;3.05;;;20.60;93.80;;;;;;5053111;28;20045;-71
2022/06/23 02:45:46;;;;;;;6.93;3.33;;;20.60;93.30;;;;;;5051374;28;20045;-71
2022/06/23 02:48:50;;;;;;;7.05;2.97;;;20.60;93.00;;;;;;5052910;28;20029;-71
2022/06/23 02:51:37;;;;;;;4.18;3.10;;;20.50;93.20;;;;;;5053129;28;20363;-71
2022/06/23 02:54:12;;;;;;;4.75;3.28;;;20.50;92.70;;;;;;5052727;28;20485;-71
2022/06/23 02:56:50;;;;;;;6.07;3.50;;;20.60;93.00;;;;;;5035495;28;20036;-71
2022/06/23 02:59:34;;;;;;;7.55;3.95;;;20.50;92.70;;;;;;5050650;28;20031;-71
2022/06/23 03:02:24;;;;;;;5.18;3.40;;;20.50;93.30;;;;;;5033005;28;20033;-71
2022/06/23 03:04:50;;;;;;;4.47;3.50;;;20.50;92.80;;;;;;5032076;28;20036;-71
2022/06/23 03:07:39;;;;;;;3.72;3.15;;;20.50;93.50;;;;;;5051090;28;20051;-72
2022/06/23 03:10:16;;;;;;;4.63;3.22;;;20.40;94.00;;;;;;5052191;28;20044;-71
2022/06/23 03:12:49;;;;;;;5.75;3.30;;;20.30;94.00;;;;;;5040677;28;20024;-72
2022/06/23 03:15:28;;;;;;;4.88;3.05;;;20.40;93.70;;;;;;5051936;28;20159;-72
2022/06/23 03:18:28;;;;;;;5.15;3.13;;;20.30;93.50;;;;;;5052619;28;20017;-72
2022/06/23 03:21:04;;;;;;;4.93;3.40;;;20.30;93.30;;;;;;5054466;28;20045;-71
2022/06/23 03:23:40;;;;;;;3.42;3.10;;;20.30;93.00;;;;;;5052536;28;20025;-71
2022/06/23 03:26:18;;;;;;;4.75;3.33;;;20.30;94.30;;;;;;5045772;28;20025;-71
2022/06/23 03:28:43;;;;;;;6.28;3.58;;;20.30;94.40;;;;;;5036179;28;20028;-72
2022/06/23 03:31:20;;;;;;;5.10;3.13;;;20.20;94.00;;;;;;5050003;28;20025;-72
2022/06/23 03:34:18;;;;;;;5.40;3.30;;;20.10;94.30;;;;;;5052400;28;20087;-71
2022/06/23 03:36:57;;;;;;;4.82;3.10;;;20.20;94.90;;;;;;5050446;28;20033;-72
2022/06/23 03:42:35;;;;;;;6.03;3.63;;;20.00;95.20;;;;;;5047795;28;20116;-71
2022/06/23 03:45:30;;;;;;;3.58;3.28;;;19.90;95.10;;;;;;5031044;28;20433;-71
2022/06/23 03:48:13;;;;;;;7.93;4.28;;;19.90;94.50;;;;;;5032611;28;20104;-71
2022/06/23 03:51:05;;;;;;;5.05;4.05;;;20.00;95.10;;;;;;5032388;28;20032;-71
2022/06/23 03:53:45;;;;;;;5.97;4.00;;;20.00;95.00;;;;;;5045252;28;20028;-71
2022/06/23 03:56:17;;;;;;;5.05;3.67;;;19.90;94.30;;;;;;5050905;28;20427;-71
2022/06/23 03:58:58;;;;;;;7.03;3.63;;;19.90;95.50;;;;;;5050404;28;20036;-71
2022/06/23 04:01:42;;;;;;;3.78;3.47;;;19.80;96.20;;;;;;5032621;28;20029;-71
2022/06/23 04:04:20;;;;;;;6.88;4.00;;;19.90;94.70;;;;;;5043492;28;20044;-71
2022/06/23 04:06:47;;;;;;;3.55;3.30;;;19.90;95.30;;;;;;5040907;28;20033;-71
2022/06/23 04:09:18;;;;;;;6.05;3.53;;;19.80;94.90;;;;;;5046110;28;20032;-71
2022/06/23 04:12:05;;;;;;;6.57;3.92;;;19.70;94.70;;;;;;5050598;28;20025;-70
2022/06/23 04:14:41;;;;;;;5.10;3.95;;;19.80;95.30;;;;;;5051161;28;20489;-71
2022/06/23 04:17:14;;;;;;;7.10;4.40;;;19.90;94.60;;;;;;5051296;28;20040;-71
2022/06/23 04:20:03;;;;;;;6.97;4.70;;;19.90;94.60;;;;;;5063177;28;20027;-71
2022/06/23 04:22:49;;;;;;;6.10;3.92;;;19.70;96.20;;;;;;5071741;28;20055;-71
2022/06/23 04:25:21;;;;;;;3.92;3.60;;;19.70;95.90;;;;;;5063023;28;20029;-71
2022/06/23 04:27:53;;;;;;;4.07;3.55;;;19.70;95.40;;;;;;5055105;28;20028;-71
2022/06/23 04:30:41;;;;;;;3.97;3.60;;;19.70;95.60;;;;;;5053933;28;20029;-71
2022/06/23 04:33:19;;;;;;;7.07;4.15;;;19.70;96.00;;;;;;5042717;28;20033;-71
2022/06/23 04:35:50;;;;;;;5.13;3.70;;;19.80;95.10;;;;;;5052585;28;20048;-72
2022/06/23 04:38:25;;;;;;;6.10;3.80;;;19.80;95.80;;;;;;5035009;28;20505;-71
2022/06/23 04:41:03;;;;;;;5.63;4.25;;;19.70;96.90;;;;;;5062716;28;20074;-71
2022/06/23 04:43:38;;;;;;;7.18;4.10;;;19.70;96.00;;;;;;5075529;28;20048;-71
2022/06/23 04:46:18;;;;;;;5.25;3.90;;;19.70;97.30;;;;;;5075038;28;20055;-71
2022/06/23 04:48:54;;;;;;;7.22;4.07;;;19.60;97.00;;;;;;5072403;28;20032;-71
2022/06/23 04:51:35;;;;;;;6.70;3.92;;;19.70;97.00;;;;;;5053283;28;20014;-71
2022/06/23 04:54:23;;;;;;;4.68;3.90;;;19.70;96.60;;;;;;5054710;28;20517;-71
2022/06/23 04:57:10;;;;;;;7.60;3.28;;;19.70;97.20;;;;;;5033770;28;20064;-71
2022/06/23 04:59:44;;;;;;;6.93;3.92;;;19.70;97.40;;;;;;5052542;28;20465;-71
2022/06/23 05:02:22;;;;;;;6.80;4.10;;;19.70;97.20;;;;;;5057815;28;20067;-72
2022/06/23 05:04:58;;;;;;;5.93;4.25;;;19.70;96.00;;;;;;5054917;28;20032;-71
2022/06/23 05:07:32;;;;;;;5.65;4.32;;;19.70;96.40;;;;;;5054333;28;20028;-71
2022/06/23 05:10:06;;;;;;;12.45;4.88;;;19.70;96.10;;;;;;5055266;28;20354;-71
2022/06/23 05:12:39;;;;;;;5.40;3.90;;;19.80;96.70;;;;;;5045393;28;20037;-71
2022/06/23 05:15:16;;;;;;;5.47;3.13;;;19.80;97.90;;;;;;5051654;28;20037;-71
2022/06/23 05:17:50;;;;;;;4.10;3.78;;;19.70;98.80;;;;;;5054546;28;20473;-71
2022/06/23 05:20:30;;;;;;;5.35;4.10;;;19.70;97.60;;;;;;5054210;28;20032;-71
2022/06/23 05:22:56;;;;;;;4.50;3.92;;;19.80;97.80;;;;;;5053843;28;20478;-71
2022/06/23 05:25:21;;;;;;;6.00;4.68;;;19.80;96.30;;;;;;5054363;28;20036;-71
2022/06/23 05:27:49;;;;;;;9.38;5.00;;;19.90;96.70;;;;;;5054660;28;20535;-72
2022/06/23 05:30:17;;;;;;;6.78;6.13;;;19.90;96.70;;;;;;5056963;28;20158;-71
2022/06/23 05:32:48;;;;;;;10.23;5.80;;;19.90;95.90;;;;;;5054084;28;20031;-71
2022/06/23 05:35:32;;;;;;;13.48;6.05;;;19.90;96.00;;;;;;5053680;28;20028;-72
2022/06/23 05:38:25;;;;;;;10.70;4.70;;;19.90;97.30;;;;;;5044921;28;20068;-71
2022/06/23 05:40:50;;;;;;;;;;;19.80;99.10;;;;;;5049631;28;20037;-71
2022/06/23 05:43:17;;;;;;;5.72;4.78;;;19.90;98.00;;;;;;5054321;28;19940;-71
2022/06/23 05:45:46;;;;;;;5.68;4.60;;;20.00;99.30;;;;;;5053061;28;20036;-71
2022/06/23 05:48:24;;;;;;;9.80;5.65;;;20.10;98.50;;;;;;5051214;28;20033;-72
2022/06/23 05:50:57;;;;;;;8.30;5.43;;;20.10;97.30;;;;;;5032747;28;20017;-71
2022/06/23 05:53:39;;;;;;;9.48;5.00;;;20.10;99.30;;;;;;5043659;28;20060;-71
2022/06/23 05:56:05;;;;;;;;;;;20.10;99.70;;;;;;5053362;28;20481;-72
2022/06/23 05:58:41;;;;;;;8.80;5.50;;;20.10;98.30;;;;;;5053823;28;19913;-71
2022/06/23 06:01:21;;;;;;;9.40;4.88;;;20.20;98.70;;;;;;5052494;28;20397;-71
2022/06/23 06:04:16;;;;;;;12.20;6.10;;;20.20;99.70;;;;;;5054064;28;20129;-72
2022/06/23 06:06:42;;;;;;;6.32;5.35;;;20.30;98.50;;;;;;5052752;28;20045;-71
2022/06/23 06:11:59;;;;;;;15.02;5.15;;;20.30;98.10;;;;;;5054502;28;20452;-71
2022/06/23 06:14:28;;;;;;;4.45;3.95;;;20.40;99.30;;;;;;5049263;28;20021;-71
2022/06/23 06:16:57;;;;;;;7.47;5.05;;;20.40;98.40;;;;;;5053362;28;20028;-72
2022/06/23 06:19:25;;;;;;;13.73;5.68;;;20.40;98.20;;;;;;5053840;28;20048;-72
2022/06/23 06:21:57;;;;;;;7.45;5.68;;;20.60;97.60;;;;;;5053572;28;20021;-71
2022/06/23 06:24:36;;;;;;;11.60;5.78;;;20.60;98.20;;;;;;5052934;28;20052;-72
2022/06/23 06:27:03;;;;;;;10.13;6.40;;;20.80;98.60;;;;;;5047425;28;20401;-71
2022/06/23 06:29:34;;;;;;;12.60;6.50;;;20.80;99.00;;;;;;5052873;28;20025;-71
2022/06/23 06:32:22;;;;;;;9.85;6.18;;;21.00;99.20;;;;;;5052541;28;20105;-71
2022/06/23 06:34:53;;;;;;;10.40;6.18;;;21.00;99.50;;;;;;5033043;28;20041;-70
2022/06/23 06:37:23;;;;;;;8.68;5.75;;;21.10;99.90;;;;;;5035327;28;20093;-72
2022/06/23 06:39:56;;;;;;;11.90;7.38;;;21.20;99.70;;;;;;5052777;28;20055;-71
2022/06/23 06:42:46;;;;;;;10.20;7.05;;;21.40;99.90;;;;;;5052922;28;20039;-71
2022/06/23 06:45:15;;;;;;;12.40;7.25;;;21.50;99.90;;;;;;5052173;28;20053;-72
2022/06/23 06:47:43;;;;;;;12.20;7.13;;;21.60;99.90;;;;;;5054372;28;20013;-72
2022/06/23 06:50:17;;;;;;;15.88;8.15;;;21.80;99.90;;;;;;5067072;28;20037;-73
2022/06/23 06:52:44;;;;;;;9.45;6.30;;;22.00;99.90;;;;;;5046016;28;20021;-72
2022/06/23 06:55:32;;;;;;;12.25;8.23;;;22.30;99.90;;;;;;5044511;28;20029;-72
2022/06/23 06:58:08;;;;;;;10.75;7.30;;;22.40;99.90;;;;;;5041696;28;20378;-72
2022/06/23 07:00:49;;;;;;;7.20;5.15;;;22.70;99.90;;;;;;5042681;28;20021;-72
2022/06/23 07:03:17;;;;;;;11.70;4.45;;;22.80;99.90;;;;;;5042320;28;20041;-72
2022/06/23 07:05:46;;;;;;;14.75;7.47;;;22.90;99.90;;;;;;5041381;28;20079;-72
2022/06/23 07:08:24;;;;;;;13.65;7.07;;;23.00;99.90;;;;;;5041712;28;20048;-72
2022/06/23 07:11:04;;;;;;;9.63;6.88;;;23.40;99.90;;;;;;5042330;28;20017;-71
2022/06/23 07:13:41;;;;;;;15.68;7.20;;;23.50;99.90;;;;;;5044724;28;20075;-72
2022/06/23 07:16:22;;;;;;;11.80;8.20;;;23.80;99.90;;;;;;5041237;28;20486;-73
2022/06/23 07:18:57;;;;;;;15.27;8.95;;;24.00;99.90;;;;;;5050229;28;20055;-72
2022/06/23 07:21:40;;;;;;;15.55;9.65;;;24.10;99.90;;;;;;5052598;28;20025;-72
2022/06/23 07:24:12;;;;;;;14.40;9.45;;;24.20;99.90;;;;;;5052684;28;20041;-72
2022/06/23 07:26:42;;;;;;;17.40;9.07;;;24.30;99.90;;;;;;5032627;28;20029;-73
2022/06/23 07:29:27;;;;;;;13.82;9.80;;;24.50;99.90;;;;;;5040304;28;20025;-72
2022/06/23 07:32:05;;;;;;;14.68;8.25;;;24.60;99.90;;;;;;5043751;28;20036;-72
2022/06/23 07:34:35;;;;;;;12.60;9.30;;;25.00;99.90;;;;;;5033504;28;20033;-72
2022/06/23 07:37:09;;;;;;;12.43;8.90;;;24.80;99.90;;;;;;5069781;28;20027;-72
2022/06/23 07:39:38;;;;;;;13.10;9.25;;;25.00;99.90;;;;;;5033012;28;20068;-72
2022/06/23 07:42:19;;;;;;;17.02;9.10;;;25.10;99.90;;;;;;5031339;28;20021;-73
2022/06/23 07:44:54;;;;;;;16.27;8.73;;;25.30;99.90;;;;;;5036292;28;20044;-73
2022/06/23 07:47:20;;;;;;;13.18;8.55;;;25.20;99.90;;;;;;5040615;28;20052;-73
2022/06/23 07:49:46;;;;;;;16.67;8.35;;;25.40;99.90;;;;;;5049870;28;20106;-72
2022/06/23 07:52:17;;;;;;;17.55;9.52;;;25.60;99.90;;;;;;5051451;28;20028;-72
2022/06/23 07:54:43;;;;;;;15.02;8.20;;;25.60;99.90;;;;;;5036344;28;20462;-72
2022/06/23 07:57:11;;;;;;;14.40;7.40;;;25.80;99.90;;;;;;5051538;28;20045;-72
2022/06/23 07:59:44;;;;;;;13.25;7.68;;;26.00;99.90;;;;;;5052140;28;20076;-72
2022/06/23 08:02:22;;;;;;;15.30;8.68;;;26.10;99.90;;;;;;5041183;28;20446;-71
2022/06/23 08:05:03;;;;;;;15.60;7.55;;;26.20;99.60;;;;;;5035659;28;20486;-72
2022/06/23 08:07:30;;;;;;;12.13;8.07;;;26.30;99.40;;;;;;5038257;28;20017;-71
2022/06/23 08:10:05;;;;;;;16.40;7.53;;;26.40;99.90;;;;;;5036125;28;20034;-73
2022/06/23 08:12:54;;;;;;;13.18;6.97;;;26.50;99.90;;;;;;5050450;28;20464;-71
2022/06/23 08:18:20;;;;;;;13.00;6.75;;;26.90;99.40;;;;;;5028123;28;20059;-72
2022/06/23 08:20:58;;;;;;;10.20;6.88;;;27.30;99.20;;;;;;5040315;28;20474;-72
2022/06/23 08:23:24;;;;;;;15.68;8.32;;;27.20;99.40;;;;;;5051012;28;20084;-72
2022/06/23 08:25:51;;;;;;;12.25;6.88;;;27.40;99.20;;;;;;5047764;28;20051;-72
2022/06/23 08:28:18;;;;;;;12.75;7.90;;;27.50;99.20;;;;;;5051789;28;20033;-71
2022/06/23 08:30:46;;;;;;;13.57;6.38;;;27.30;99.30;;;;;;5052899;28;20005;-72
2022/06/23 08:33:12;;;;;;;14.25;7.05;;;27.40;99.90;;;;;;5047718;28;20025;-71
2022/06/23 08:35:51;;;;;;;11.82;6.75;;;27.30;99.90;;;;;;5049994;28;20040;-72
2022/06/23 08:38:34;;;;;;;13.82;7.50;;;27.60;99.90;;;;;;5048952;28;20027;-72
2022/06/23 08:41:08;;;;;;;11.45;6.82;;;27.60;99.20;;;;;;5048756;28;20043;-72
2022/06/23 08:43:41;;;;;;;14.57;7.35;;;27.80;99.90;;;;;;5050502;28;20032;-72
2022/06/23 08:46:28;;;;;;;12.00;6.05;;;28.10;99.70;;;;;;5049867;28;20422;-73
2022/06/23 08:48:58;;;;;;;12.40;7.55;;;28.30;99.60;;;;;;5049854;28;20463;-72
2022/06/23 08:51:47;;;;;;;10.07;6.03;;;28.40;98.80;;;;;;5049478;28;20018;-72
2022/06/23 08:54:38;;;;;;;18.83;7.72;;;28.40;99.30;;;;;;5048557;28;20026;-71
2022/06/23 08:57:15;;;;;;;12.55;7.45;;;28.50;99.20;;;;;;5044613;28;20112;-72
2022/06/23 08:59:47;;;;;;;14.32;6.63;;;28.60;98.40;;;;;;5047002;28;20031;-72
2022/06/23 09:02:20;;;;;;;12.48;7.63;;;28.60;99.20;;;;;;5070454;28;20029;-72
2022/06/23 09:04:49;;;;;;;13.55;6.68;;;28.30;98.60;;;;;;5058988;28;20107;-72
2022/06/23 09:07:32;;;;;;;13.38;5.95;;;28.20;98.90;;;;;;5061610;28;20453;-72
2022/06/23 09:09:58;;;;;;;15.30;6.13;;;28.10;99.60;;;;;;5065949;28;20041;-72
2022/06/23 09:12:53;;;;;;;11.75;5.68;;;28.00;99.90;;;;;;5070693;28;20043;-72
2022/06/23 09:15:43;;;;;;;12.32;5.82;;;27.80;99.90;;;;;;5062952;28;20032;-71
2022/06/23 09:18:39;;;;;;;11.10;5.15;;;27.90;99.90;;;;;;5056749;28;20461;-71
2022/06/23 09:21:30;;;;;;;11.73;5.53;;;28.10;99.30;;;;;;5050145;28;20020;-72
2022/06/23 09:24:31;;;;;;;11.10;5.80;;;28.30;99.90;;;;;;5058918;28;20028;-72
2022/06/23 09:27:05;;;;;;;17.67;6.55;;;28.70;98.60;;;;;;5061275;28;20038;-72
2022/06/23 09:29:52;;;;;;;10.57;5.95;;;29.10;98.90;;;;;;5062251;28;20057;-72
2022/06/23 09:32:27;;;;;;;18.50;6.28;;;29.40;98.40;;;;;;5055861;28;20115;-72
2022/06/23 09:35:28;;;;;;;15.55;6.20;;;28.90;97.50;;;;;;5067937;28;20378;-72
2022/06/23 09:38:17;;;;;;;11.30;5.13;;;29.00;98.10;;;;;;5069282;28;20335;-72
2022/06/23 09:40:47;;;;;;;12.73;5.30;;;29.40;98.10;;;;;;5043116;28;20016;-72
2022/06/23 09:43:31;;;;;;;10.18;4.90;;;29.60;97.80;;;;;;5064565;28;20032;-72
2022/06/23 09:46:30;;;;;;;13.75;4.68;;;29.60;97.40;;;;;;5056994;28;20117;-72
2022/06/23 09:49:07;;;;;;;11.57;4.68;;;30.00;96.50;;;;;;5052380;28;20021;-72
2022/06/23 09:51:47;;;;;;;10.95;5.25;;;30.10;96.40;;;;;;5059419;28;20028;-72
2022/06/23 09:54:16;;;;;;;10.25;4.78;;;29.80;96.40;;;;;;5069354;28;20024;-72
2022/06/23 09:56:44;;;;;;;8.80;4.70;;;29.80;96.40;;;;;;5057186;28;20026;-72
2022/06/23 09:59:31;;;;;;;9.63;5.18;;;29.80;96.60;;;;;;5051367;28;20074;-72
2022/06/23 10:02:09;;;;;;;11.88;4.95;;;30.10;95.90;;;;;;5048563;28;20529;-72
2022/06/23 10:04:46;;;;;;;15.38;6.03;;;29.90;95.60;;;;;;5069269;28;20040;-73
2022/06/23 10:07:21;;;;;;;15.13;5.05;;;29.60;96.00;;;;;;5060844;28;20032;-73
2022/06/23 10:10:02;;;;;;;11.60;4.78;;;29.60;96.60;;;;;;5059301;28;20152;-73
2022/06/23 10:13:03;;;;;;;12.27;5.68;;;29.50;97.20;;;;;;5064021;28;20033;-72
2022/06/23 10:16:12;;;;;;;13.43;5.53;;;29.40;97.80;;;;;;5068129;28;20501;-72
2022/06/23 10:18:58;;;;;;;9.80;5.22;;;29.70;96.80;;;;;;5050992;28;20440;-72
2022/06/23 10:21:40;;;;;;;13.05;5.65;;;30.00;97.20;;;;;;5059874;28;20028;-72
2022/06/23 10:24:43;;;;;;;14.23;5.40;;;30.20;97.40;;;;;;5066762;28;20090;-72
2022/06/23 10:27:14;;;;;;;;;;;30.30;96.20;;;;;;5049300;28;20150;-72
2022/06/23 10:29:59;;;;;;;20.75;6.75;;;30.40;95.70;;;;;;5057957;28;20288;-72
2022/06/23 10:33:02;;;;;;;10.07;5.13;;;30.30;95.60;;;;;;5068511;28;20042;-73
2022/06/23 10:35:45;;;;;;;9.70;5.50;;;30.60;96.10;;;;;;5066895;28;20059;-73
2022/06/23 10:38:35;;;;;;;15.05;5.40;;;30.60;96.10;;;;;;5063971;28;20021;-72
2022/06/23 10:41:16;;;;;;;17.60;6.30;;;30.60;95.70;;;;;;5035690;28;20029;-72
2022/06/23 10:44:01;;;;;;;13.95;5.78;;;30.80;96.50;;;;;;5064690;28;20044;-73
2022/06/23 10:47:04;;;;;;;12.70;6.70;;;30.90;95.80;;;;;;5053397;28;20052;-72
2022/06/23 10:50:08;;;;;;;13.30;5.43;;;31.20;94.90;;;;;;5061650;28;20079;-73
2022/06/23 10:52:39;;;;;;;10.23;4.70;;;30.80;95.00;;;;;;5045627;28;20446;-72
2022/06/23 10:55:19;;;;;;;11.38;6.00;;;30.60;94.90;;;;;;5055492;28;20099;-73
2022/06/23 10:58:03;;;;;;;12.55;6.05;;;30.80;95.60;;;;;;5063920;28;20021;-73
2022/06/23 11:00:54;;;;;;;11.35;5.57;;;31.10;95.30;;;;;;5052574;28;20071;-73
2022/06/23 11:03:35;;;;;;;9.85;5.45;;;30.70;95.10;;;;;;5040193;28;20044;-73
2022/06/23 11:06:13;;;;;;;10.23;5.65;;;30.80;94.80;;;;;;5056508;28;20017;-73
2022/06/23 11:08:57;;;;;;;11.52;5.70;;;30.90;95.00;;;;;;5050888;28;20028;-73
2022/06/23 11:12:00;;;;;;;8.23;4.50;;;31.20;94.30;;;;;;5054972;28;20473;-73
2022/06/23 11:14:40;;;;;;;9.27;4.70;;;31.30;95.10;;;;;;5057763;28;20037;-73
2022/06/23 11:17:19;;;;;;;10.35;5.35;;;31.50;93.80;;;;;;5057293;28;20029;-73
2022/06/23 11:20:01;;;;;;;10.68;5.00;;;31.20;94.10;;;;;;5058633;28;20028;-72
2022/06/23 11:22:52;;;;;;;14.10;5.95;;;31.20;95.30;;;;;;5064035;28;20029;-72
2022/06/23 11:25:42;;;;;;;10.68;5.43;;;30.90;94.70;;;;;;5050040;28;20035;-73
2022/06/23 11:28:28;;;;;;;12.20;4.75;;;31.40;94.60;;;;;;5052639;28;20029;-73
2022/06/23 11:31:06;;;;;;;10.40;4.97;;;31.40;92.60;;;;;;5060920;28;20024;-72
2022/06/23 11:33:41;;;;;;;11.07;4.82;;;31.40;94.20;;;;;;5048972;28;20025;-72
2022/06/23 11:36:25;;;;;;;7.43;4.40;;;31.00;93.40;;;;;;5050735;28;20385;-73
2022/06/23 11:39:25;;;;;;;9.48;5.07;;;31.40;93.60;;;;;;5059100;28;20025;-73
2022/06/23 11:42:05;;;;;;;12.13;5.13;;;31.30;92.70;;;;;;5055188;28;20024;-73
2022/06/23 11:44:58;;;;;;;9.27;4.82;;;31.60;94.00;;;;;;5060241;28;20048;-73
2022/06/23 11:47:29;;;;;;;13.02;4.70;;;31.80;92.90;;;;;;5057001;28;20092;-72
2022/06/23 11:50:18;;;;;;;15.25;4.43;;;31.30;92.20;;;;;;5053619;28;20362;-73
2022/06/23 11:52:59;;;;;;;11.52;4.47;;;31.20;93.00;;;;;;5065327;28;20465;-73
2022/06/23 11:55:34;;;;;;;9.18;4.90;;;31.40;93.20;;;;;;5057323;28;20491;-73
2022/06/23 11:58:26;;;;;;;8.02;4.55;;;31.90;93.20;;;;;;5052474;28;20028;-72
2022/06/23 12:01:30;;;;;;;6.25;4.43;;;31.80;92.00;;;;;;5056772;28;20008;-72
2022/06/23 12:04:23;;;;;;;8.73;3.92;;;31.90;93.10;;;;;;5050718;28;20045;-72
2022/06/23 12:07:00;;;;;;;8.00;4.05;;;32.30;91.90;;;;;;5056619;28;20028;-72
2022/06/23 12:09:43;;;;;;;10.85;4.38;;;32.40;91.10;;;;;;5054327;28;20040;-72
2022/06/23 12:12:09;;;;;;;6.60;4.13;;;32.80;91.00;;;;;;5061668;28;20032;-72
2022/06/23 12:14:37;;;;;;;11.98;4.20;;;32.70;90.80;;;;;;5056651;28;20388;-72
2022/06/23 12:17:19;;;;;;;8.68;3.97;;;32.60;91.70;;;;;;5049111;28;20029;-72
2022/06/23 12:19:57;;;;;;;7.80;3.97;;;32.90;91.90;;;;;;5049727;28;20029;-72
2022/06/23 12:22:46;;;;;;;9.10;4.13;;;33.10;91.50;;;;;;5052536;28;20024;-72
2022/06/23 12:25:50;;;;;;;6.25;3.70;;;32.90;90.10;;;;;;5056639;28;20035;-73
2022/06/23 12:28:28;;;;;;;6.28;3.83;;;32.80;90.50;;;;;;5065347;28;20020;-74
2022/06/23 12:31:08;;;;;;;10.32;3.92;;;33.10;90.70;;;;;;5058840;28;20370;-73
2022/06/23 12:33:49;;;;;;;6.65;4.47;;;33.00;91.30;;;;;;5062360;28;20081;-72
2022/06/23 12:36:34;;;;;;;8.15;4.30;;;33.10;90.90;;;;;;5044336;28;20052;-72
2022/06/23 12:39:29;;;;;;;6.68;4.35;;;33.30;90.10;;;;;;5043148;28;20021;-73
2022/06/23 12:42:04;;;;;;;6.85;4.00;;;33.20;87.60;;;;;;5042961;28;20175;-73
2022/06/23 12:44:50;;;;;;;7.82;3.90;;;33.20;89.90;;;;;;5043726;28;20088;-72
2022/06/23 12:47:22;;;;;;;10.07;4.07;;;33.30;89.60;;;;;;5044047;28;20057;-72
2022/06/23 12:50:04;;;;;;;6.50;4.10;;;33.40;90.50;;;;;;5045570;28;20064;-72
2022/06/23 12:52:52;;;;;;;7.63;3.67;;;33.40;90.20;;;;;;5044486;28;20025;-73
2022/06/23 12:55:44;;;;;;;8.68;3.65;;;32.80;88.00;;;;;;5043474;28;20524;-72
2022/06/23 12:58:33;;;;;;;5.53;2.85;;;32.40;88.80;;;;;;5044908;28;20378;-73
2022/06/23 13:01:04;;;;;;;5.05;3.13;;;32.30;86.50;;;;;;5043163;28;20495;-73
2022/06/23 13:03:59;;;;;;;6.28;4.15;;;32.50;90.10;;;;;;5049531;28;20037;-73
2022/06/23 13:06:34;;;;;;;8.13;3.42;;;32.80;90.60;;;;;;5053485;28;20400;-72
2022/06/23 13:09:07;;;;;;;9.75;3.53;;;32.80;88.40;;;;;;5047750;28;20044;-72
2022/06/23 13:11:40;;;;;;;6.43;3.05;;;32.80;90.30;;;;;;5057798;28;20025;-73
2022/06/23 13:14:16;;;;;;;5.63;3.20;;;32.90;87.20;;;;;;5045502;28;20056;-74
2022/06/23 13:17:08;;;;;;;6.68;3.83;;;33.00;87.00;;;;;;5046018;28;20021;-72
2022/06/23 13:19:56;;;;;;;5.82;2.70;;;33.10;83.70;;;;;;5063370;28;20021;-72
2022/06/23 13:22:22;;;;;;;7.38;3.20;;;33.00;82.90;;;;;;5045522;28;20021;-73
2022/06/23 13:24:53;;;;;;;5.90;3.25;;;33.30;84.90;;;;;;5047681;28;20484;-73
2022/06/23 13:27:22;;;;;;;8.30;3.30;;;33.30;83.90;;;;;;5046476;28;20032;-72
2022/06/23 13:30:12;;;;;;;4.55;3.22;;;33.60;82.80;;;;;;5047103;28;20049;-72
2022/06/23 13:33:02;;;;;;;7.35;3.55;;;33.70;81.40;;;;;;5044359;28;20021;-71
2022/06/23 13:35:45;;;;;;;6.38;3.30;;;33.30;81.80;;;;;;5048786;28;20009;-71
2022/06/23 13:38:37;;;;;;;7.50;2.85;;;33.00;84.90;;;;;;5044634;28;20022;-72
2022/06/23 13:41:23;;;;;;;5.07;2.70;;;32.60;82.10;;;;;;5046342;28;20520;-72
2022/06/23 13:44:07;;;;;;;6.97;3.13;;;32.40;82.40;;;;;;5045981;28;20304;-72
2022/06/23 13:46:39;;;;;;;7.43;3.33;;;32.20;85.60;;;;;;5044508;28;20500;-71
2022/06/23 13:49:19;;;;;;;10.32;3.88;;;31.90;89.90;;;;;;5042328;28;20029;-71
2022/06/23 13:52:09;;;;;;;5.97;3.38;;;31.70;90.80;;;;;;5042616;28;20056;-71
2022/06/23 13:54:55;;;;;;;5.32;3.20;;;31.50;89.30;;;;;;5050534;28;20021;-71